createdAt,value
2023-04-18T00:01:51.880Z,44.25
2023-04-18T00:06:57.178Z,44.75
2023-04-18T00:12:04.378Z,42.50
2023-04-18T00:17:12.442Z,44.00
2023-04-18T00:22:18.737Z,41.75
2023-04-18T00:27:23.874Z,36.75
2023-04-18T00:32:28.910Z,39.75
2023-04-18T00:37:36.578Z,37.00
2023-04-18T00:42:42.233Z,36.50
2023-04-18T00:47:46.953Z,35.25
2023-04-18T00:52:51.980Z,30.50
2023-04-18T00:57:57.720Z,35.00
2023-04-18T01:03:02.777Z,33.25
2023-04-18T01:08:08.764Z,32.75
2023-04-18T01:13:22.880Z,33.75
2023-04-18T01:18:28.018Z,28.50
2023-04-18T01:23:32.799Z,30.75
2023-04-18T01:28:38.428Z,28.50
2023-04-18T01:33:45.049Z,30.25
2023-04-18T01:38:50.262Z,28.50
2023-04-18T01:43:55.449Z,25.75
2023-04-18T01:49:01.058Z,21.75
2023-04-18T01:54:06.082Z,25.50
2023-04-18T01:59:11.904Z,23.50
2023-04-18T02:04:17.137Z,22.50
2023-04-18T02:09:23.731Z,20.75
2023-04-18T02:14:32.325Z,19.50
2023-04-18T02:19:37.934Z,18.50
2023-04-18T02:24:44.456Z,18.25
2023-04-18T02:29:49.358Z,13.25
2023-04-18T02:34:54.468Z,22.75
2023-04-18T02:39:59.342Z,17.50
2023-04-18T02:45:08.170Z,17.50
2023-04-18T02:50:13.379Z,21.00
2023-04-18T02:55:18.160Z,16.25
2023-04-18T03:00:23.732Z,16.75
2023-04-18T03:05:43.190Z,18.25
2023-04-18T03:10:48.183Z,13.25
2023-04-18T03:15:56.539Z,11.00
2023-04-18T03:21:03.339Z,12.00
2023-04-18T03:26:10.493Z,11.25
2023-04-18T03:31:18.768Z,13.25
2023-04-18T03:36:26.784Z,12.00
2023-04-18T03:41:32.550Z,9.25
2023-04-18T03:46:37.786Z,8.00
2023-04-18T03:51:51.412Z,9.00
2023-04-18T03:56:57.090Z,8.00
2023-04-18T04:02:02.994Z,6.25
2023-04-18T04:07:08.284Z,6.25
2023-04-18T04:12:13.875Z,10.75
2023-04-18T04:17:21.516Z,7.00
2023-04-18T04:22:27.017Z,12.75
2023-04-18T04:27:35.215Z,6.25
2023-04-18T04:32:46.140Z,7.00
2023-04-18T04:37:52.025Z,8.00
2023-04-18T04:43:16.713Z,6.50
2023-04-18T04:48:23.754Z,7.50
2023-04-18T04:53:34.046Z,7.25
2023-04-18T04:58:39.288Z,5.75
2023-04-18T05:04:16.789Z,7.25
2023-04-18T05:09:21.875Z,8.00
2023-04-18T05:14:27.458Z,8.00
2023-04-18T05:19:32.763Z,6.50
2023-04-18T05:24:37.718Z,6.75
2023-04-18T05:29:42.775Z,3.50
2023-04-18T05:34:48.307Z,5.50
2023-04-18T05:39:53.365Z,9.00
2023-04-18T05:44:58.182Z,3.75
2023-04-18T05:50:03.030Z,5.75
2023-04-18T05:55:08.514Z,6.00
2023-04-18T06:00:14.376Z,3.75
2023-04-18T06:05:19.903Z,5.00
2023-04-18T06:10:25.051Z,5.00
2023-04-18T06:15:30.305Z,4.75
2023-04-18T06:20:35.289Z,6.00
2023-04-18T06:25:42.631Z,5.00
2023-04-18T06:30:47.592Z,5.25
2023-04-18T06:35:52.729Z,5.50
2023-04-18T06:40:57.747Z,4.00
2023-04-18T06:46:02.969Z,4.25
2023-04-18T06:51:08.896Z,4.00
2023-04-18T06:56:13.923Z,6.50
2023-04-18T07:01:19.318Z,5.00
2023-04-18T07:06:25.063Z,5.75
2023-04-18T07:11:29.983Z,3.00
2023-04-18T07:16:34.794Z,4.50
2023-04-18T07:21:41.979Z,4.50
2023-04-18T07:26:47.233Z,6.25
2023-04-18T07:31:52.378Z,3.50
2023-04-18T07:37:00.163Z,3.00
2023-04-18T07:42:07.160Z,2.75
2023-04-18T07:47:12.324Z,4.25
2023-04-18T07:52:17.177Z,3.00
2023-04-18T07:57:22.155Z,4.00
2023-04-18T08:02:27.254Z,3.25
2023-04-18T08:07:32.525Z,3.00
2023-04-18T08:12:39.212Z,4.00
2023-04-18T08:17:46.326Z,6.25
2023-04-18T08:28:02.052Z,7.75
2023-04-18T08:33:07.714Z,7.75
2023-04-18T08:38:13.885Z,4.75
2023-04-18T08:43:19.650Z,4.50
2023-04-18T08:48:25.305Z,5.25
2023-04-18T08:53:30.563Z,5.00
2023-04-18T08:58:36.153Z,5.00
2023-04-18T09:03:45.288Z,8.50
2023-04-18T09:09:03.017Z,7.00
2023-04-18T09:14:09.107Z,7.25
2023-04-18T09:19:15.589Z,5.50
2023-04-18T09:24:22.314Z,6.00
2023-04-18T09:29:47.622Z,6.00
2023-04-18T09:35:04.588Z,9.00
2023-04-18T09:40:20.407Z,6.00
2023-04-18T09:45:27.065Z,5.75
2023-04-18T09:50:32.735Z,4.75
2023-04-18T09:55:38.961Z,8.25
2023-04-18T10:00:46.352Z,9.00
2023-04-18T10:05:52.338Z,11.50
2023-04-18T10:10:59.947Z,16.50
2023-04-18T10:16:05.070Z,18.25
2023-04-18T10:21:10.991Z,14.50
2023-04-18T10:26:16.828Z,20.50
2023-04-18T10:31:23.435Z,17.00
2023-04-18T10:36:29.559Z,17.50
2023-04-18T10:41:36.402Z,18.75
2023-04-18T10:46:45.365Z,14.75
2023-04-18T10:51:51.224Z,14.00
2023-04-18T10:56:56.974Z,15.25
2023-04-18T11:02:08.665Z,13.00
2023-04-18T11:07:14.046Z,13.00
2023-04-18T11:12:19.655Z,17.00
2023-04-18T11:17:25.687Z,15.75
2023-04-18T11:22:31.206Z,18.75
